Time;durP1;ratioP1;P1;durP2;ratioP2;P2;SDS_P1;SDS_P2;PMS_P1;PMS_P2;Temp;Humidity;BMP_temperature;BMP_pressure;BME280_temperature;BME280_humidity;BME280_pressure;Samples;Min_cycle;Max_cycle;Signal;HPM_P1;HPM_P2
2023/01/01 00:01:55;;;;;;;13.20;8.93;;;;;;;14.82;100.00;164439.78;5042136;28;20098;-61
2023/01/01 00:04:20;;;;;;;22.67;8.52;;;;;;;14.82;100.00;164441.13;5043679;28;20387;-62
2023/01/01 00:06:45;;;;;;;10.85;7.55;;;;;;;14.82;100.00;164441.13;5040977;28;20045;-63
2023/01/01 00:11:55;;;;;;;10.68;5.95;;;;;;;14.78;100.00;164430.25;5046867;28;20110;-62
2023/01/01 00:14:21;;;;;;;13.00;6.85;;;;;;;14.77;100.00;164426.22;5046430;28;20479;-63
2023/01/01 00:16:46;;;;;;;18.33;5.82;;;;;;;14.78;100.00;164430.25;5048120;28;20063;-62
2023/01/01 00:19:11;;;;;;;13.55;7.47;;;;;;;14.76;100.00;164424.88;5043205;28;20392;-62
2023/01/01 00:21:38;;;;;;;13.48;6.43;;;;;;;14.76;100.00;164424.88;5046723;28;20060;-62
2023/01/01 00:24:04;;;;;;;15.77;7.25;;;;;;;14.72;100.00;164414.03;5055597;28;20117;-62
2023/01/01 00:26:29;;;;;;;14.10;6.22;;;;;;;14.69;100.00;164405.94;5038812;28;20043;-62
2023/01/01 00:28:55;;;;;;;10.68;6.25;;;;;;;14.64;100.00;164392.31;5043532;28;20028;-62
2023/01/01 00:31:21;;;;;;;13.77;6.57;;;;;;;14.58;100.00;164378.81;5062440;28;20533;-62
2023/01/01 00:33:51;;;;;;;10.13;5.38;;;;;;;14.51;100.00;164358.53;5060579;28;20047;-62
2023/01/01 00:36:18;;;;;;;13.93;6.82;;;;;;;14.44;100.00;164340.94;5041257;28;20037;-62
2023/01/01 00:38:45;;;;;;;15.55;8.45;;;;;;;14.34;100.00;164315.22;5036096;28;20048;-62
2023/01/01 00:41:12;;;;;;;16.45;7.82;;;;;;;14.27;100.00;164296.28;5047129;28;20381;-62
2023/01/01 00:43:37;;;;;;;11.30;7.60;;;;;;;14.27;100.00;164297.63;5047700;28;20115;-62
2023/01/01 00:46:05;;;;;;;14.50;7.90;;;;;;;14.34;100.00;164313.84;5037812;28;20561;-62
2023/01/01 00:48:31;;;;;;;21.52;9.45;;;;;;;14.37;100.00;164322.00;5051288;28;20052;-63
2023/01/01 00:50:56;;;;;;;15.23;7.35;;;;;;;14.27;100.00;164297.63;5050567;28;20507;-62
2023/01/01 00:53:22;;;;;;;21.35;10.63;;;;;;;14.23;100.00;164286.81;5057740;28;20036;-60
2023/01/01 00:55:49;;;;;;;18.73;8.43;;;;;;;14.13;100.00;164259.75;5049698;28;20507;-62
2023/01/01 00:58:16;;;;;;;23.75;9.20;;;;;;;14.11;100.00;164254.38;5052648;28;20039;-62
2023/01/01 01:00:42;;;;;;;16.70;9.20;;;;;;;14.12;100.00;164257.03;5056308;28;20191;-62
2023/01/01 01:03:09;;;;;;;20.08;10.43;;;;;;;14.12;100.00;164257.03;5062682;28;20140;-62
2023/01/01 01:05:37;;;;;;;16.08;8.00;;;;;;;14.02;100.00;164230.03;5051366;28;20047;-63
2023/01/01 01:08:02;;;;;;;19.48;9.20;;;;;;;13.81;100.00;164175.94;5052297;28;20086;-62
2023/01/01 01:10:27;;;;;;;30.55;12.23;;;;;;;13.61;100.00;164124.50;5052488;28;20041;-63
2023/01/01 01:12:53;;;;;;;17.20;9.68;;;;;;;13.59;100.00;164119.09;5055184;28;20028;-62
2023/01/01 01:15:19;;;;;;;16.08;12.00;;;;;;;13.56;100.00;164111.00;5051625;28;20057;-62
2023/01/01 01:17:44;;;;;;;26.50;9.95;;;;;;;13.52;100.00;164098.81;5058948;28;20032;-62
2023/01/01 01:20:11;;;;;;;17.30;9.18;;;;;;;13.51;100.00;164097.50;5050966;28;20021;-62
2023/01/01 01:22:37;;;;;;;10.02;8.48;;;;;;;13.50;100.00;164094.78;5052181;28;20017;-62
2023/01/01 01:25:02;;;;;;;22.83;9.98;;;;;;;13.51;100.00;164097.50;5051131;28;20519;-62
2023/01/01 01:27:28;;;;;;;8.57;6.18;;;;;;;13.54;100.00;164105.56;5047848;28;20515;-62
2023/01/01 01:29:53;;;;;;;17.30;6.95;;;;;;;13.58;100.00;164116.41;5049295;28;20036;-62
2023/01/01 01:32:19;;;;;;;13.63;7.22;;;;;;;13.61;100.00;164124.50;5047058;28;20540;-62
2023/01/01 01:34:44;;;;;;;10.90;6.95;;;;;;;13.70;100.00;164146.16;5049325;28;20041;-62
2023/01/01 01:37:10;;;;;;;13.80;5.22;;;;;;;13.80;100.00;164173.22;5047200;28;20076;-62
2023/01/01 01:39:36;;;;;;;17.60;6.60;;;;;;;13.90;100.00;164200.25;5049200;28;20480;-62
2023/01/01 01:42:02;;;;;;;11.65;7.20;;;;;;;13.93;100.00;164208.38;5048912;28;20094;-62
2023/01/01 01:44:46;;;;;;;19.20;6.25;;;;;;;14.01;100.00;164227.31;5051945;28;20433;-62
2023/01/01 01:47:37;;;;;;;9.73;6.40;;;;;;;14.02;100.00;164230.03;5050152;28;20059;-62
2023/01/01 01:50:28;;;;;;;12.98;5.47;;;;;;;13.99;100.00;164221.88;5045265;28;20037;-62
2023/01/01 01:53:17;;;;;;;16.33;6.47;;;;;;;13.97;100.00;164217.84;5050772;28;20052;-63
2023/01/01 01:55:47;;;;;;;11.68;6.55;;;;;;;13.94;100.00;164209.69;5049360;28;20040;-62
2023/01/01 01:58:14;;;;;;;13.30;6.22;;;;;;;14.01;100.00;164227.31;5051508;28;20041;-62
2023/01/01 02:00:40;;;;;;;11.07;6.40;;;;;;;14.01;100.00;164227.31;5050073;28;21464;-62
2023/01/01 02:03:13;;;;;;;20.17;6.55;;;;;;;13.98;100.00;164219.16;5050951;28;20514;-62
2023/01/01 02:05:40;;;;;;;18.10;6.95;;;;;;;13.92;100.00;164205.66;5050176;28;20074;-62
2023/01/01 02:08:07;;;;;;;9.07;4.05;;;;;;;13.88;100.00;164194.84;5051337;28;20052;-62
2023/01/01 02:10:33;;;;;;;11.77;4.60;;;;;;;13.84;100.00;164184.00;5064332;28;20082;-62
2023/01/01 02:12:59;;;;;;;8.48;5.47;;;;;;;13.83;100.00;164181.31;5062518;28;20055;-62
2023/01/01 02:15:29;;;;;;;14.30;4.97;;;;;;;13.85;100.00;164185.41;5053618;28;20028;-62
2023/01/01 02:18:01;;;;;;;20.88;5.97;;;;;;;13.83;100.00;164181.31;5068971;28;20028;-62
2023/01/01 02:20:36;;;;;;;11.02;4.57;;;;;;;13.85;100.00;164186.72;5057323;28;20104;-61
2023/01/01 02:23:09;;;;;;;12.50;3.92;;;;;;;13.87;100.00;164190.75;5031019;28;20029;-62
2023/01/01 02:25:41;;;;;;;6.45;3.65;;;;;;;13.92;100.00;164205.66;5048990;28;20111;-62
2023/01/01 02:28:23;;;;;;;12.75;4.50;;;;;;;13.95;100.00;164212.41;5050752;28;20376;-62
2023/01/01 02:30:52;;;;;;;10.63;5.40;;;;;;;13.94;100.00;164211.09;5041908;28;20060;-62
2023/01/01 02:33:23;;;;;;;5.15;3.80;;;;;;;14.02;100.00;164230.03;5032016;28;20087;-62
2023/01/01 02:35:55;;;;;;;11.68;4.43;;;;;;;14.02;100.00;164230.03;5033822;28;20060;-62
2023/01/01 02:38:31;;;;;;;4.32;3.47;;;;;;;13.93;100.00;164208.38;5050362;28;20028;-62
2023/01/01 02:41:10;;;;;;;16.80;6.40;;;;;;;13.85;100.00;164185.41;5049589;28;20039;-62
2023/01/01 02:43:36;;;;;;;11.05;3.40;;;;;;;13.74;100.00;164156.94;5050678;28;20032;-62
2023/01/01 02:46:07;;;;;;;5.45;4.00;;;;;;;13.61;100.00;164124.50;5061677;28;20040;-62
2023/01/01 02:48:40;;;;;;;9.27;4.55;;;;;;;13.68;100.00;164140.72;5069935;28;20033;-62
2023/01/01 02:51:13;;;;;;;8.68;4.75;;;;;;;13.66;100.00;164135.34;5069302;28;20120;-61
2023/01/01 02:54:16;;;;;;;7.10;3.58;;;;;;;13.64;100.00;164131.25;5070506;28;20035;-62
2023/01/01 02:57:02;;;;;;;11.75;5.35;;;;;;;13.57;100.00;164113.72;5066560;28;20043;-62
2023/01/01 03:02:44;;;;;;;16.85;5.20;;;;;;;13.45;100.00;164082.59;5032762;28;20245;-62
2023/01/01 03:05:25;;;;;;;12.15;4.47;;;;;;;13.42;100.00;164074.47;5034123;28;20033;-62
2023/01/01 03:07:50;;;;;;;9.25;3.92;;;;;;;13.39;100.00;164065.00;5029153;28;20041;-62
2023/01/01 03:10:18;;;;;;;6.40;3.40;;;;;;;13.53;100.00;164102.88;5030312;28;20559;-62
2023/01/01 03:13:03;;;;;;;5.22;3.75;;;;;;;13.52;100.00;164100.16;5029352;28;20412;-62
2023/01/01 03:15:40;;;;;;;15.48;3.92;;;;;;;13.56;100.00;164109.63;5034145;28;20017;-62
2023/01/01 03:18:15;;;;;;;12.55;4.35;;;;;;;13.61;100.00;164124.50;5036053;28;20112;-62
2023/01/01 03:20:44;;;;;;;6.60;3.75;;;;;;;13.68;100.00;164140.72;5036657;28;20041;-62
2023/01/01 03:23:16;;;;;;;9.23;4.10;;;;;;;13.67;100.00;164138.00;5037410;28;20028;-62
2023/01/01 03:25:47;;;;;;;8.90;4.03;;;;;;;13.72;100.00;164151.56;5049050;28;20373;-62
2023/01/01 03:28:18;;;;;;;9.82;3.42;;;;;;;13.68;100.00;164142.09;5060645;28;20510;-62
2023/01/01 03:30:47;;;;;;;8.63;3.45;;;;;;;13.66;100.00;164135.34;5058738;28;20136;-61
2023/01/01 03:33:28;;;;;;;9.90;4.25;;;;;;;13.66;100.00;164135.34;5050189;28;20032;-63
2023/01/01 03:35:59;;;;;;;13.20;4.07;;;;;;;13.73;100.00;164155.63;5048499;28;20128;-61
2023/01/01 03:38:37;;;;;;;9.93;3.60;;;;;;;13.72;100.00;164151.56;5049487;28;20039;-63
2023/01/01 03:41:35;;;;;;;10.10;3.83;;;;;;;13.64;100.00;164132.63;5059540;28;20044;-65
2023/01/01 03:44:13;;;;;;;9.32;3.97;;;;;;;13.73;100.00;164155.63;5070109;28;20043;-61
2023/01/01 03:46:39;;;;;;;7.00;3.50;;;;;;;13.71;100.00;164150.19;5068712;28;20540;-62
2023/01/01 03:49:08;;;;;;;5.32;4.10;;;;;;;13.71;100.00;164148.84;5069808;28;20032;-62
2023/01/01 03:51:58;;;;;;;9.70;3.83;;;;;;;13.70;100.00;164146.16;5051249;28;20123;-62
2023/01/01 03:54:39;;;;;;;8.07;3.65;;;;;;;13.67;100.00;164138.00;5050063;28;20033;-63
2023/01/01 03:57:41;;;;;;;8.85;3.33;;;;;;;13.63;100.00;164129.94;5048745;28;20492;-60
2023/01/01 04:00:18;;;;;;;15.35;3.80;;;;;;;13.64;100.00;164131.25;5049665;28;20033;-61
2023/01/01 04:02:51;;;;;;;14.55;4.57;;;;;;;13.63;100.00;164128.53;5048536;28;20222;-61
2023/01/01 04:05:18;;;;;;;23.05;4.78;;;;;;;13.60;100.00;164121.78;5049718;28;20028;-61
2023/01/01 04:07:43;;;;;;;21.35;4.50;;;;;;;13.60;100.00;164121.78;5048436;28;20052;-61
2023/01/01 04:10:18;;;;;;;12.27;4.10;;;;;;;13.49;100.00;164092.06;5049775;28;20021;-60
2023/01/01 04:12:49;;;;;;;9.88;5.20;;;;;;;13.47;100.00;164086.66;5048813;28;20156;-60
2023/01/01 04:15:22;;;;;;;10.23;3.00;;;;;;;13.45;100.00;164081.22;5049502;28;20534;-61
2023/01/01 04:17:48;;;;;;;5.60;2.88;;;;;;;13.40;100.00;164069.09;5049704;28;20060;-61
2023/01/01 04:20:14;;;;;;;4.70;3.10;;;;;;;13.36;100.00;164056.88;5053427;28;20021;-60
2023/01/01 04:22:39;;;;;;;11.77;3.22;;;;;;;13.36;100.00;164056.88;5051996;28;20138;-60
2023/01/01 04:25:05;;;;;;;9.07;2.20;;;;;;;13.44;100.00;164078.56;5053389;28;20052;-61
2023/01/01 04:27:31;;;;;;;5.28;3.00;;;;;;;13.49;100.00;164092.06;5052175;28;20041;-60
2023/01/01 04:29:56;;;;;;;7.25;3.00;;;;;;;13.48;100.00;164089.34;5052847;28;20515;-61
2023/01/01 04:32:21;;;;;;;13.73;4.72;;;;;;;13.45;100.00;164081.22;5051641;28;20045;-60
2023/01/01 04:34:47;;;;;;;10.73;3.38;;;;;;;13.49;100.00;164092.06;5053204;28;20040;-61
2023/01/01 04:37:13;;;;;;;6.63;3.28;;;;;;;13.51;100.00;164097.50;5051490;28;20428;-61
2023/01/01 04:39:39;;;;;;;7.82;3.30;;;;;;;13.52;100.00;164100.16;5053409;28;20052;-60
2023/01/01 04:42:05;;;;;;;8.68;3.35;;;;;;;13.54;100.00;164105.56;5051481;28;20041;-61
2023/01/01 04:44:30;;;;;;;6.63;2.95;;;;;;;13.53;100.00;164102.88;5053064;28;20036;-60
2023/01/01 04:46:55;;;;;;;9.68;2.60;;;;;;;13.52;100.00;164098.81;5051708;28;20110;-60
2023/01/01 04:49:21;;;;;;;11.13;2.83;;;;;;;13.49;100.00;164092.06;5052872;28;20580;-60
2023/01/01 04:51:46;;;;;;;6.32;3.15;;;;;;;13.51;100.00;164097.50;5051244;28;20033;-60
2023/01/01 04:54:12;;;;;;;7.70;3.15;;;;;;;13.49;100.00;164093.41;5052693;28;20072;-60
2023/01/01 04:56:37;;;;;;;5.72;3.42;;;;;;;13.52;100.00;164100.16;5051692;28;20044;-61
2023/01/01 04:59:02;;;;;;;7.75;4.75;;;;;;;13.51;100.00;164097.50;5052481;28;20538;-61
2023/01/01 05:01:29;;;;;;;6.28;3.40;;;;;;;13.50;100.00;164094.78;5051550;28;20037;-60
2023/01/01 05:03:56;;;;;;;14.90;5.20;;;;;;;13.56;100.00;164111.00;5052817;28;20047;-60
2023/01/01 05:06:22;;;;;;;6.90;3.10;;;;;;;13.58;100.00;164116.41;5050630;28;20044;-61
2023/01/01 05:08:49;;;;;;;10.50;4.30;;;;;;;13.58;100.00;164116.41;5052580;28;20035;-61
2023/01/01 05:11:28;;;;;;;6.78;3.20;;;;;;;13.57;100.00;164113.72;5050924;28;20500;-61
2023/01/01 05:13:57;;;;;;;8.75;3.97;;;;;;;13.60;100.00;164120.47;5052680;28;20387;-60
2023/01/01 05:16:25;;;;;;;7.53;2.92;;;;;;;13.58;100.00;164116.41;5062468;28;20503;-60
2023/01/01 05:18:51;;;;;;;6.72;3.00;;;;;;;13.49;100.00;164093.41;5060659;28;20040;-60
2023/01/01 05:21:30;;;;;;;7.65;3.97;;;;;;;13.56;100.00;164111.00;5050776;28;20504;-60
2023/01/01 05:23:58;;;;;;;7.82;2.97;;;;;;;13.57;100.00;164112.31;5052536;28;20030;-60
2023/01/01 05:26:26;;;;;;;4.10;2.25;;;;;;;13.56;100.00;164111.00;5050889;28;20122;-60
2023/01/01 05:28:52;;;;;;;;;;;;;;;13.54;100.00;164105.56;5052593;28;20062;-60
2023/01/01 05:31:22;;;;;;;4.75;2.63;;;;;;;13.56;100.00;164109.63;5050582;28;19920;-60
2023/01/01 05:33:49;;;;;;;5.07;2.78;;;;;;;13.59;100.00;164119.09;5052105;28;20033;-59
2023/01/01 05:36:20;;;;;;;9.23;3.92;;;;;;;13.62;100.00;164127.22;5049994;28;20064;-59
2023/01/01 05:38:45;;;;;;;7.93;3.10;;;;;;;13.63;100.00;164128.53;5052338;28;20090;-59
2023/01/01 05:41:13;;;;;;;7.25;3.65;;;;;;;13.59;100.00;164119.09;5050721;28;20033;-59
2023/01/01 05:43:38;;;;;;;5.40;3.28;;;;;;;13.61;100.00;164123.19;5051747;28;20039;-59
2023/01/01 05:46:10;;;;;;;4.32;2.45;;;;;;;13.59;100.00;164119.09;5050248;28;20051;-59
2023/01/01 05:48:36;;;;;;;7.13;4.22;;;;;;;13.55;100.00;164108.28;5052102;28;20031;-59
2023/01/01 05:51:06;;;;;;;6.82;3.55;;;;;;;13.51;100.00;164097.50;5049834;28;20128;-59
2023/01/01 05:53:32;;;;;;;6.10;2.97;;;;;;;13.48;100.00;164089.34;5052052;28;20020;-59
2023/01/01 05:55:58;;;;;;;11.45;3.10;;;;;;;13.50;100.00;164094.78;5050419;28;20044;-59
2023/01/01 05:58:25;;;;;;;7.60;2.78;;;;;;;13.47;100.00;164086.66;5051248;28;20024;-59
2023/01/01 06:00:50;;;;;;;32.22;4.22;;;;;;;13.42;100.00;164074.47;5050214;28;20043;-60
2023/01/01 06:03:16;;;;;;;5.50;4.03;;;;;;;13.44;100.00;164078.56;5051328;28;20049;-60
2023/01/01 06:05:41;;;;;;;12.18;2.67;;;;;;;13.43;100.00;164075.84;5050257;28;20037;-60
2023/01/01 06:08:06;;;;;;;5.65;2.65;;;;;;;13.39;100.00;164065.00;5051378;28;20666;-60
2023/01/01 06:10:32;;;;;;;5.35;3.08;;;;;;;13.39;100.00;164065.00;5049700;28;20028;-60
2023/01/01 06:12:57;;;;;;;7.82;2.35;;;;;;;13.32;100.00;164048.75;5051245;28;20480;-60
2023/01/01 06:15:24;;;;;;;12.77;3.42;;;;;;;13.27;100.00;164035.22;5050128;28;20033;-59
2023/01/01 06:17:49;;;;;;;4.20;2.78;;;;;;;13.20;100.00;164014.94;5051248;28;20035;-61
2023/01/01 06:20:15;;;;;;;9.82;3.20;;;;;;;13.13;100.00;163998.72;5056891;28;20016;-59
2023/01/01 06:22:40;;;;;;;7.18;3.60;;;;;;;13.10;100.00;163989.25;5070032;28;20127;-59
2023/01/01 06:25:06;;;;;;;8.32;4.13;;;;;;;13.08;100.00;163983.81;5071000;28;20025;-60
2023/01/01 06:27:34;;;;;;;11.18;3.38;;;;;;;13.09;100.00;163986.53;5064823;28;20066;-60
2023/01/01 06:29:59;;;;;;;9.40;4.47;;;;;;;13.09;100.00;163986.53;5057825;28;20056;-59
2023/01/01 06:32:24;;;;;;;3.90;2.42;;;;;;;13.11;100.00;163993.28;5049740;28;20044;-60
2023/01/01 06:34:50;;;;;;;11.02;4.22;;;;;;;13.13;100.00;163997.38;5051151;28;20079;-59
2023/01/01 06:37:15;;;;;;;8.43;3.47;;;;;;;13.13;100.00;163997.38;5049159;28;20051;-60
2023/01/01 06:39:40;;;;;;;7.20;3.60;;;;;;;13.21;100.00;164019.03;5051174;28;20021;-59
2023/01/01 06:42:05;;;;;;;12.82;2.95;;;;;;;13.21;100.00;164019.03;5057645;28;20101;-59
2023/01/01 06:44:31;;;;;;;6.65;3.20;;;;;;;13.17;100.00;164009.56;5060141;28;20032;-60
2023/01/01 06:46:56;;;;;;;4.15;3.17;;;;;;;13.12;100.00;163994.66;5049667;28;20551;-59
2023/01/01 06:49:21;;;;;;;10.68;4.30;;;;;;;13.09;100.00;163986.53;5050044;28;20079;-59
2023/01/01 06:51:47;;;;;;;13.45;4.13;;;;;;;13.08;100.00;163983.81;5049552;28;20060;-59
2023/01/01 06:54:12;;;;;;;11.02;3.28;;;;;;;13.07;100.00;163981.16;5058170;28;20017;-59
2023/01/01 06:56:38;;;;;;;5.22;3.10;;;;;;;13.02;100.00;163970.31;5069433;28;20040;-59
2023/01/01 06:59:04;;;;;;;10.93;4.57;;;;;;;13.00;100.00;163964.91;5064972;28;20029;-59
2023/01/01 07:01:32;;;;;;;7.47;3.40;;;;;;;13.02;100.00;163970.31;5049466;28;20040;-59
2023/01/01 07:04:00;;;;;;;3.33;2.42;;;;;;;13.05;100.00;163975.75;5050302;28;20170;-59
2023/01/01 07:06:27;;;;;;;16.00;6.03;;;;;;;13.05;100.00;163975.75;5048790;28;20040;-59
2023/01/01 07:08:53;;;;;;;5.97;3.20;;;;;;;13.07;100.00;163981.16;5050623;28;20478;-58
2023/01/01 07:11:19;;;;;;;8.80;2.63;;;;;;;13.11;100.00;163993.28;5048889;28;20166;-59
2023/01/01 07:13:44;;;;;;;5.90;2.80;;;;;;;13.09;100.00;163986.53;5050315;28;20025;-59
2023/01/01 07:16:10;;;;;;;13.15;3.60;;;;;;;13.00;100.00;163964.91;5049119;28;20068;-60
2023/01/01 07:18:35;;;;;;;8.82;4.03;;;;;;;12.99;100.00;163962.19;5050470;28;20033;-60
2023/01/01 07:21:02;;;;;;;11.52;5.07;;;;;;;12.99;100.00;163960.88;5049029;28;20041;-59
2023/01/01 07:23:30;;;;;;;8.27;4.10;;;;;;;12.95;100.00;163951.41;5050524;28;20033;-60
2023/01/01 07:25:56;;;;;;;12.80;4.90;;;;;;;12.95;100.00;163951.41;5054574;28;20061;-60
2023/01/01 07:28:22;;;;;;;8.95;3.63;;;;;;;12.91;100.00;163940.63;5049929;28;20025;-59
2023/01/01 07:30:48;;;;;;;8.00;4.32;;;;;;;12.93;100.00;163945.97;5048103;28;20041;-61
2023/01/01 07:33:16;;;;;;;6.30;3.13;;;;;;;12.90;100.00;163937.91;5050093;28;20044;-60
2023/01/01 07:35:43;;;;;;;6.30;3.85;;;;;;;12.86;100.00;163927.06;5048837;28;20040;-60
2023/01/01 07:38:09;;;;;;;12.45;4.55;;;;;;;12.82;100.00;163916.28;5054108;28;20024;-60
2023/01/01 07:40:34;;;;;;;8.70;3.88;;;;;;;12.83;100.00;163920.31;5063734;28;20021;-60
2023/01/01 07:42:59;;;;;;;9.15;4.30;;;;;;;12.81;100.00;163913.56;5050060;28;20025;-61
2023/01/01 07:45:24;;;;;;;6.82;3.70;;;;;;;12.76;100.00;163901.38;5048835;28;20036;-60
2023/01/01 07:47:54;;;;;;;4.25;3.22;;;;;;;12.74;100.00;163894.63;5050424;28;20495;-60
2023/01/01 07:50:20;;;;;;;6.13;4.10;;;;;;;12.76;100.00;163900.06;5049562;28;20080;-60
2023/01/01 07:52:45;;;;;;;5.07;2.45;;;;;;;12.65;100.00;163873.00;5049898;28;20040;-60
2023/01/01 07:55:16;;;;;;;3.42;2.20;;;;;;;12.68;100.00;163881.13;5061148;28;20044;-62
2023/01/01 07:57:43;;;;;;;3.08;2.17;;;;;;;12.56;100.00;163848.66;5064425;28;20069;-62
2023/01/01 08:00:10;;;;;;;3.78;2.10;;;;;;;12.53;100.00;163840.59;5053629;28;20095;-60
2023/01/01 08:02:36;;;;;;;3.63;1.33;;;;;;;12.41;100.00;163808.13;5040300;28;20053;-60
2023/01/01 08:05:02;;;;;;;7.55;2.75;;;;;;;12.28;100.00;163775.72;5053522;28;20032;-60
2023/01/01 08:07:27;;;;;;;8.23;2.42;;;;;;;12.22;100.00;163759.50;5052575;28;20045;-60
2023/01/01 08:09:52;;;;;;;3.95;2.92;;;;;;;12.11;100.00;163729.75;5053749;28;20021;-60
2023/01/01 08:12:18;;;;;;;10.75;2.95;;;;;;;11.98;100.00;163697.34;5051345;28;20060;-60
2023/01/01 08:14:43;;;;;;;4.72;2.20;;;;;;;11.86;100.00;163664.91;5036017;28;20029;-60
2023/01/01 08:17:08;;;;;;;2.42;2.10;;;;;;;11.71;100.00;163627.06;5046973;28;20037;-60
2023/01/01 08:19:34;;;;;;;1.92;1.50;;;;;;;11.59;100.00;163594.63;5053704;28;20484;-60
2023/01/01 08:21:59;;;;;;;5.07;1.90;;;;;;;11.57;100.00;163589.25;5052282;28;20037;-60
2023/01/01 08:24:25;;;;;;;5.65;3.28;;;;;;;11.52;100.00;163575.72;5053402;28;20484;-60
2023/01/01 08:26:50;;;;;;;7.65;2.65;;;;;;;11.38;100.00;163540.63;5051518;28;20045;-60
2023/01/01 08:29:16;;;;;;;6.03;2.10;;;;;;;11.32;100.00;163524.41;5055952;28;20028;-60
2023/01/01 08:31:41;;;;;;;2.63;2.42;;;;;;;11.21;100.00;163494.69;5061493;28;20502;-60
2023/01/01 08:34:07;;;;;;;5.43;2.83;;;;;;;11.23;100.00;163500.09;5067519;28;20039;-60
2023/01/01 08:36:32;;;;;;;9.68;2.72;;;;;;;11.21;100.00;163494.69;5072066;28;20032;-60
2023/01/01 08:38:58;;;;;;;4.35;2.00;;;;;;;11.15;100.00;163479.88;5062038;28;20033;-61
2023/01/01 08:41:23;;;;;;;5.85;2.30;;;;;;;11.15;100.00;163478.47;5043091;28;20091;-61
2023/01/01 08:43:49;;;;;;;6.13;2.50;;;;;;;11.15;100.00;163478.47;5046384;28;20438;-61
2023/01/01 08:46:14;;;;;;;7.43;2.40;;;;;;;10.96;100.00;163429.91;5050020;28;20051;-61
2023/01/01 08:48:40;;;;;;;5.65;3.70;;;;;;;11.16;100.00;163482.56;5069395;28;20031;-61
2023/01/01 08:51:05;;;;;;;7.10;3.53;;;;;;;11.18;100.00;163486.59;5063016;28;20045;-61
2023/01/01 08:53:31;;;;;;;7.28;2.60;;;;;;;11.17;100.00;163483.91;5053860;28;20369;-61
2023/01/01 08:55:58;;;;;;;7.35;2.97;;;;;;;11.16;100.00;163481.19;5051322;28;20043;-61
2023/01/01 08:58:24;;;;;;;2.42;2.20;;;;;;;11.16;100.00;163481.19;5052025;28;20098;-60
2023/01/01 09:00:50;;;;;;;12.77;4.03;;;;;;;11.13;100.00;163473.13;5051760;28;20511;-60
2023/01/01 09:03:15;;;;;;;4.65;1.95;;;;;;;11.14;100.00;163475.78;5056930;28;20049;-59
2023/01/01 09:05:44;;;;;;;4.03;2.85;;;;;;;11.17;100.00;163483.91;5071553;28;21144;-59
2023/01/01 09:08:10;;;;;;;6.38;3.20;;;;;;;11.18;100.00;163486.59;5070064;28;20021;-58
2023/01/01 09:10:35;;;;;;;4.45;2.80;;;;;;;11.16;100.00;163481.19;5065027;28;20040;-58
2023/01/01 09:13:01;;;;;;;4.45;3.58;;;;;;;11.19;100.00;163489.31;5052803;28;20024;-58
2023/01/01 09:15:26;;;;;;;3.35;2.80;;;;;;;11.19;100.00;163489.31;5051331;28;20495;-59
2023/01/01 09:17:51;;;;;;;8.43;3.75;;;;;;;11.19;100.00;163489.31;5052362;28;20589;-58
2023/01/01 09:20:17;;;;;;;7.47;2.80;;;;;;;11.16;100.00;163481.19;5052326;28;20383;-58
2023/01/01 09:22:42;;;;;;;7.10;4.05;;;;;;;11.15;100.00;163478.47;5051189;28;20037;-58
2023/01/01 09:25:07;;;;;;;8.85;4.15;;;;;;;11.15;100.00;163478.47;5065152;28;20032;-58
2023/01/01 09:27:33;;;;;;;7.20;3.92;;;;;;;11.17;100.00;163483.91;5051039;28;20040;-58
2023/01/01 09:29:59;;;;;;;9.23;3.80;;;;;;;11.19;100.00;163490.63;5052462;28;20375;-58
2023/01/01 09:32:24;;;;;;;11.63;4.40;;;;;;;11.20;100.00;163492.03;5050466;28;20041;-58
2023/01/01 09:34:50;;;;;;;5.15;2.30;;;;;;;11.29;100.00;163516.28;5054827;28;20040;-58
2023/01/01 09:37:15;;;;;;;9.82;3.63;;;;;;;11.32;100.00;163524.41;5050699;28;20041;-59
2023/01/01 09:39:40;;;;;;;7.40;3.58;;;;;;;11.37;100.00;163537.91;5051579;28;20032;-58
2023/01/01 09:42:24;;;;;;;11.23;3.88;;;;;;;11.46;100.00;163559.50;5056309;28;20047;-58
2023/01/01 09:44:58;;;;;;;10.45;3.38;;;;;;;11.49;100.00;163567.63;5069757;28;20530;-57
2023/01/01 09:47:38;;;;;;;6.18;3.75;;;;;;;11.47;100.00;163562.22;5048062;28;20040;-57
2023/01/01 09:50:15;;;;;;;9.35;3.22;;;;;;;11.50;100.00;163570.34;5049013;28;20029;-59
2023/01/01 09:52:54;;;;;;;5.15;2.50;;;;;;;11.48;100.00;163564.94;5049086;28;20068;-58
2023/01/01 09:55:40;;;;;;;6.78;3.88;;;;;;;11.47;100.00;163562.22;5055042;28;20444;-58
2023/01/01 09:58:09;;;;;;;5.43;3.08;;;;;;;11.45;100.00;163558.19;5042375;28;20073;-58
2023/01/01 10:00:38;;;;;;;10.60;2.78;;;;;;;11.47;100.00;163562.22;5030266;28;20512;-58
2023/01/01 10:03:22;;;;;;;5.40;4.22;;;;;;;11.45;100.00;163556.81;5031383;28;20053;-58
2023/01/01 10:06:12;;;;;;;14.25;4.82;;;;;;;11.42;100.00;163551.44;5050230;28;20040;-59
2023/01/01 10:08:57;;;;;;;7.05;4.18;;;;;;;11.37;100.00;163537.91;5050726;28;20040;-58
2023/01/01 10:11:36;;;;;;;10.15;4.45;;;;;;;11.25;100.00;163505.50;5044153;28;20451;-58
2023/01/01 10:14:13;;;;;;;12.07;3.58;;;;;;;11.25;100.00;163505.50;5052499;28;20047;-58
2023/01/01 10:16:45;;;;;;;11.25;3.20;;;;;;;11.19;100.00;163489.31;5054382;28;20063;-58
2023/01/01 10:19:23;;;;;;;7.30;3.10;;;;;;;11.28;100.00;163513.63;5060983;28;20483;-58
2023/01/01 10:21:52;;;;;;;7.60;3.05;;;;;;;11.26;100.00;163509.56;5056454;28;20444;-58
2023/01/01 10:24:40;;;;;;;5.13;2.42;;;;;;;11.35;100.00;163531.16;5057752;28;20024;-58
2023/01/01 10:27:08;;;;;;;6.20;3.03;;;;;;;11.35;100.00;163532.53;5060703;28;20500;-58
2023/01/01 10:29:42;;;;;;;10.55;3.65;;;;;;;11.42;100.00;163551.44;5068519;28;20086;-58
2023/01/01 10:32:20;;;;;;;8.40;3.17;;;;;;;11.43;100.00;163554.09;5042037;28;20052;-58
2023/01/01 10:34:47;;;;;;;7.05;3.53;;;;;;;11.49;100.00;163567.63;5051288;28;20372;-58
2023/01/01 10:37:14;;;;;;;8.88;3.65;;;;;;;11.50;100.00;163570.34;5052731;28;20379;-58
2023/01/01 10:39:40;;;;;;;6.10;2.65;;;;;;;11.46;100.00;163560.91;5052528;28;20491;-58
2023/01/01 10:42:05;;;;;;;5.50;3.10;;;;;;;11.45;100.00;163558.19;5050776;28;20044;-59
2023/01/01 10:44:33;;;;;;;9.98;3.38;;;;;;;11.43;100.00;163554.09;5051166;28;20017;-59
2023/01/01 10:47:09;;;;;;;7.53;2.40;;;;;;;11.33;100.00;163527.13;5048918;28;20045;-59
2023/01/01 10:49:53;;;;;;;12.40;4.40;;;;;;;11.30;100.00;163519.00;5051896;28;20025;-58
2023/01/01 10:52:23;;;;;;;9.52;2.72;;;;;;;11.33;100.00;163525.75;5060087;28;20041;-59
2023/01/01 10:54:49;;;;;;;5.20;2.88;;;;;;;11.30;100.00;163519.00;5061057;28;20059;-59
2023/01/01 10:57:19;;;;;;;8.88;3.75;;;;;;;11.29;100.00;163514.97;5050788;28;20041;-59
2023/01/01 10:59:45;;;;;;;6.38;3.53;;;;;;;11.23;100.00;163501.47;5050667;28;20028;-59
2023/01/01 11:02:14;;;;;;;9.95;3.60;;;;;;;11.21;100.00;163494.69;5062090;28;20075;-59
2023/01/01 11:04:40;;;;;;;8.30;3.72;;;;;;;11.13;100.00;163474.44;5054647;28;20060;-59
2023/01/01 11:07:06;;;;;;;6.90;4.32;;;;;;;11.05;100.00;163454.22;5043510;28;20076;-59
2023/01/01 11:09:35;;;;;;;8.02;4.40;;;;;;;11.03;100.00;163448.81;5058903;28;20039;-59
2023/01/01 11:12:06;;;;;;;6.75;3.85;;;;;;;11.03;100.00;163447.44;5038834;28;20064;-59
2023/01/01 11:14:42;;;;;;;6.45;3.58;;;;;;;10.96;100.00;163429.91;5054677;28;20395;-59
2023/01/01 11:17:09;;;;;;;10.45;3.90;;;;;;;10.90;100.00;163413.72;5064461;28;20076;-59
2023/01/01 11:19:37;;;;;;;6.22;2.80;;;;;;;10.88;100.00;163408.28;5047959;28;20029;-59
2023/01/01 11:22:06;;;;;;;9.10;4.03;;;;;;;10.81;100.00;163389.41;5047016;28;20496;-58
2023/01/01 11:24:33;;;;;;;11.85;4.70;;;;;;;10.77;100.00;163381.28;5054389;28;20024;-58
2023/01/01 11:27:22;;;;;;;11.18;3.10;;;;;;;10.70;100.00;163362.38;5051215;28;20123;-59
2023/01/01 11:29:50;;;;;;;11.18;3.75;;;;;;;10.69;100.00;163358.34;5052504;28;20039;-59